Time;durP1;ratioP1;P1;durP2;ratioP2;P2;SDS_P1;SDS_P2;PMS_P1;PMS_P2;Temp;Humidity;BMP_temperature;BMP_pressure;BME280_temperature;BME280_humidity;BME280_pressure;Samples;Min_cycle;Max_cycle;Signal;HPM_P1;HPM_P2
2021/10/03 00:01:05;;;;;;;3.45;1.30;;;15.90;91.60;;;;;;5003389;28;20383;-76
2021/10/03 00:03:34;;;;;;;3.30;1.10;;;15.90;91.60;;;;;;5007037;28;20377;-79
2021/10/03 00:06:02;;;;;;;3.60;1.50;;;15.90;91.60;;;;;;5009624;28;20133;-74
2021/10/03 00:08:28;;;;;;;3.80;1.20;;;15.80;91.70;;;;;;5008928;28;20034;-74
2021/10/03 00:10:54;;;;;;;3.70;1.10;;;15.80;91.50;;;;;;5004745;28;20034;-76
2021/10/03 00:13:23;;;;;;;4.28;1.23;;;15.80;91.60;;;;;;5010247;28;20034;-74
2021/10/03 00:15:49;;;;;;;4.18;1.30;;;15.80;91.60;;;;;;5003103;28;20132;-74
2021/10/03 00:18:14;;;;;;;4.93;1.48;;;15.70;91.60;;;;;;5005489;28;20125;-74
2021/10/03 00:20:42;;;;;;;2.85;1.20;;;15.70;91.70;;;;;;5008703;28;20050;-75
2021/10/03 00:23:08;;;;;;;3.83;1.25;;;15.70;91.70;;;;;;5006160;28;20037;-76
2021/10/03 00:25:34;;;;;;;5.38;1.35;;;15.70;91.80;;;;;;5006028;28;20092;-77
2021/10/03 00:28:00;;;;;;;3.65;1.40;;;15.70;91.90;;;;;;5006120;28;20371;-75
2021/10/03 00:30:26;;;;;;;5.78;1.30;;;15.70;91.90;;;;;;5009489;28;20041;-74
2021/10/03 00:32:51;;;;;;;5.57;1.55;;;15.70;92.00;;;;;;5005507;28;20043;-77
2021/10/03 00:35:19;;;;;;;6.22;1.55;;;15.70;92.10;;;;;;5004941;28;20030;-75
2021/10/03 00:37:44;;;;;;;8.80;2.00;;;15.70;92.10;;;;;;5006728;28;20182;-74
2021/10/03 00:40:11;;;;;;;5.68;1.42;;;15.70;92.10;;;;;;5008249;28;20117;-74
2021/10/03 00:42:39;;;;;;;7.40;1.92;;;15.60;92.20;;;;;;4999897;28;20041;-76
2021/10/03 00:45:06;;;;;;;8.88;2.08;;;15.60;92.20;;;;;;5012694;28;20547;-75
2021/10/03 00:47:32;;;;;;;5.28;1.45;;;15.70;92.40;;;;;;5009242;28;20554;-74
2021/10/03 00:49:58;;;;;;;6.97;2.03;;;15.70;92.40;;;;;;5007456;28;20144;-75
2021/10/03 00:52:24;;;;;;;12.68;2.15;;;15.70;92.40;;;;;;5008168;28;20042;-75
2021/10/03 00:54:50;;;;;;;6.28;1.75;;;15.70;92.40;;;;;;5008086;28;20053;-77
2021/10/03 00:57:16;;;;;;;8.95;1.90;;;15.70;92.40;;;;;;5006965;28;20069;-75
2021/10/03 00:59:42;;;;;;;9.77;1.90;;;15.70;92.50;;;;;;5008806;28;20022;-75
2021/10/03 01:02:08;;;;;;;7.93;1.55;;;15.70;92.50;;;;;;5005481;28;20508;-75
2021/10/03 01:04:33;;;;;;;11.02;2.30;;;15.80;92.50;;;;;;4999058;28;20113;-76
2021/10/03 01:06:59;;;;;;;10.20;2.50;;;15.80;92.60;;;;;;5003464;28;20492;-75
2021/10/03 01:09:25;;;;;;;8.75;2.00;;;15.70;92.60;;;;;;5006252;28;20057;-81
2021/10/03 01:11:51;;;;;;;8.68;2.17;;;15.70;92.80;;;;;;4997238;28;20072;-75
2021/10/03 01:14:20;;;;;;;7.05;1.88;;;15.80;92.70;;;;;;5007616;28;20029;-74
2021/10/03 01:16:48;;;;;;;7.00;2.03;;;15.70;92.70;;;;;;5007419;28;20141;-75
2021/10/03 01:19:15;;;;;;;7.57;2.28;;;15.60;92.50;;;;;;5001261;28;20042;-77
2021/10/03 01:21:45;;;;;;;8.25;2.08;;;15.60;92.10;;;;;;5007385;28;20042;-76
2021/10/03 01:24:11;;;;;;;9.55;2.33;;;15.50;92.10;;;;;;4996777;28;20053;-76
2021/10/03 01:26:37;;;;;;;7.80;2.10;;;15.50;92.00;;;;;;5002380;28;20042;-75
2021/10/03 01:29:03;;;;;;;6.13;1.90;;;15.50;91.90;;;;;;5003900;28;20474;-76
2021/10/03 01:31:30;;;;;;;5.95;1.95;;;15.30;91.70;;;;;;5002747;28;20048;-75
2021/10/03 01:33:57;;;;;;;6.53;2.10;;;15.30;91.50;;;;;;5007703;28;20034;-75
2021/10/03 01:36:25;;;;;;;6.80;1.70;;;15.30;91.50;;;;;;5003063;28;20227;-77
2021/10/03 01:38:51;;;;;;;5.55;1.50;;;15.30;91.00;;;;;;5004071;28;20096;-75
2021/10/03 01:41:17;;;;;;;7.82;2.00;;;15.30;91.00;;;;;;5001069;28;20045;-74
2021/10/03 01:43:43;;;;;;;6.22;1.60;;;15.20;90.90;;;;;;5006730;28;20030;-75
2021/10/03 01:46:09;;;;;;;7.45;2.08;;;15.20;91.00;;;;;;5003114;28;20037;-75
2021/10/03 01:48:35;;;;;;;7.20;1.70;;;15.20;91.00;;;;;;5005545;28;20393;-75
2021/10/03 01:51:05;;;;;;;6.55;1.90;;;15.20;91.00;;;;;;5000064;28;20038;-78
2021/10/03 01:53:36;;;;;;;7.65;1.70;;;15.10;91.20;;;;;;5004139;28;20105;-74
2021/10/03 01:56:04;;;;;;;9.43;2.17;;;15.10;91.00;;;;;;4996902;28;20035;-75
2021/10/03 01:58:35;;;;;;;8.02;2.22;;;15.10;91.10;;;;;;5003061;28;20109;-75
2021/10/03 02:01:05;;;;;;;8.57;2.42;;;15.10;91.20;;;;;;5004778;28;20038;-75
2021/10/03 02:03:31;;;;;;;7.03;2.30;;;15.10;91.30;;;;;;5006444;28;20080;-75
2021/10/03 02:05:57;;;;;;;7.53;2.00;;;15.10;91.40;;;;;;5002891;28;20129;-75
2021/10/03 02:08:23;;;;;;;8.07;2.53;;;15.10;91.40;;;;;;5004909;28;20046;-75
2021/10/03 02:10:51;;;;;;;8.23;2.53;;;15.10;91.40;;;;;;4999581;28;20591;-76
2021/10/03 02:13:20;;;;;;;9.73;2.70;;;15.10;91.50;;;;;;5006280;28;20125;-75
2021/10/03 02:15:47;;;;;;;6.55;2.20;;;15.10;91.40;;;;;;5003657;28;20036;-74
2021/10/03 02:18:15;;;;;;;7.05;2.10;;;15.10;91.40;;;;;;5004395;28;20040;-74
2021/10/03 02:20:41;;;;;;;6.47;2.38;;;15.00;91.40;;;;;;5002419;28;20068;-75
2021/10/03 02:23:10;;;;;;;7.32;2.33;;;15.00;90.70;;;;;;5002102;28;20042;-79
2021/10/03 02:25:46;;;;;;;5.88;2.25;;;14.90;90.70;;;;;;5000032;28;20706;-82
2021/10/03 02:28:17;;;;;;;7.45;2.20;;;14.90;90.80;;;;;;5004280;28;20503;-79
2021/10/03 02:30:44;;;;;;;7.97;2.72;;;14.90;91.10;;;;;;5011294;28;20038;-75
2021/10/03 02:33:10;;;;;;;9.82;2.70;;;14.90;91.10;;;;;;5009532;28;20474;-75
2021/10/03 02:35:39;;;;;;;6.45;1.70;;;14.90;91.20;;;;;;5006279;28;20046;-77
2021/10/03 02:38:08;;;;;;;7.50;2.20;;;14.90;91.30;;;;;;5001715;28;20573;-75
2021/10/03 02:40:34;;;;;;;6.93;1.95;;;14.90;91.40;;;;;;5004374;28;20045;-74
2021/10/03 02:43:05;;;;;;;6.03;1.63;;;14.90;91.40;;;;;;5008176;28;20065;-75
2021/10/03 02:45:35;;;;;;;5.40;1.40;;;14.90;91.40;;;;;;5002964;28;20501;-75
2021/10/03 02:48:01;;;;;;;6.38;1.60;;;14.90;91.50;;;;;;5001057;28;20037;-76
2021/10/03 02:50:27;;;;;;;7.70;1.98;;;14.80;91.50;;;;;;5007884;28;20038;-74
2021/10/03 02:52:53;;;;;;;6.43;1.92;;;14.80;91.50;;;;;;5010802;28;20034;-74
2021/10/03 02:55:19;;;;;;;7.75;1.60;;;14.80;91.60;;;;;;5007570;28;20038;-76
2021/10/03 02:57:44;;;;;;;8.38;1.83;;;14.80;91.70;;;;;;5001167;28;20081;-75
2021/10/03 03:00:11;;;;;;;5.63;1.70;;;14.80;91.70;;;;;;5004314;28;20037;-80
2021/10/03 03:02:37;;;;;;;7.75;1.85;;;14.80;91.70;;;;;;5009979;28;20030;-74
2021/10/03 03:05:06;;;;;;;10.07;2.13;;;14.80;91.70;;;;;;5006697;28;20049;-77
2021/10/03 03:07:31;;;;;;;4.28;1.65;;;14.70;91.50;;;;;;5006053;28;20037;-82
2021/10/03 03:09:57;;;;;;;7.25;1.90;;;14.70;91.80;;;;;;5004556;28;20927;-78
2021/10/03 03:12:23;;;;;;;8.43;2.10;;;14.60;91.70;;;;;;5004291;28;20033;-75
2021/10/03 03:14:48;;;;;;;5.75;1.50;;;14.60;91.70;;;;;;4998031;28;20045;-75
2021/10/03 03:17:16;;;;;;;7.07;2.10;;;14.60;91.70;;;;;;5005488;28;20481;-75
2021/10/03 03:19:43;;;;;;;5.25;1.90;;;14.60;91.70;;;;;;5001638;28;20057;-76
2021/10/03 03:22:10;;;;;;;3.83;1.40;;;14.20;90.40;;;;;;5006069;28;20052;-74
2021/10/03 03:24:36;;;;;;;5.07;1.60;;;14.00;89.70;;;;;;5004648;28;20448;-76
2021/10/03 03:27:02;;;;;;;6.40;1.50;;;13.70;89.70;;;;;;5007152;28;20138;-75
2021/10/03 03:29:28;;;;;;;5.70;1.48;;;13.60;89.80;;;;;;5002482;28;20730;-79
2021/10/03 03:31:55;;;;;;;4.85;1.40;;;13.50;89.90;;;;;;5007733;28;20096;-74
2021/10/03 03:34:21;;;;;;;2.70;1.33;;;13.40;90.30;;;;;;5002464;28;20057;-75
2021/10/03 03:36:47;;;;;;;5.90;1.52;;;13.40;90.40;;;;;;5005237;28;20555;-74
2021/10/03 03:39:12;;;;;;;3.92;1.35;;;13.50;90.40;;;;;;5006131;28;20042;-77
2021/10/03 03:41:38;;;;;;;5.10;1.33;;;13.40;90.10;;;;;;5004794;28;20050;-75
2021/10/03 03:44:04;;;;;;;5.63;1.17;;;13.40;90.20;;;;;;4999522;28;20038;-75
2021/10/03 03:46:30;;;;;;;5.03;1.10;;;13.30;90.20;;;;;;5004507;28;20061;-74
2021/10/03 03:48:55;;;;;;;4.18;1.27;;;13.30;90.30;;;;;;4998741;28;20056;-74
2021/10/03 03:51:21;;;;;;;3.95;1.30;;;13.30;90.30;;;;;;5000860;28;20131;-75
2021/10/03 03:53:47;;;;;;;4.00;1.30;;;13.40;90.20;;;;;;5006514;28;20440;-75
2021/10/03 03:56:13;;;;;;;3.70;1.20;;;13.40;90.20;;;;;;5002890;28;20113;-75
2021/10/03 03:58:38;;;;;;;5.60;1.40;;;13.40;90.30;;;;;;5004130;28;20363;-78
2021/10/03 04:01:04;;;;;;;6.53;2.20;;;13.40;90.50;;;;;;5001542;28;20053;-75
2021/10/03 04:03:30;;;;;;;5.65;1.92;;;13.40;90.50;;;;;;5001687;28;20113;-75
2021/10/03 04:05:55;;;;;;;7.43;2.50;;;13.40;90.70;;;;;;5007835;28;20075;-77
2021/10/03 04:08:23;;;;;;;7.88;2.40;;;13.50;90.70;;;;;;5002489;28;20054;-74
2021/10/03 04:10:50;;;;;;;6.07;2.80;;;13.50;90.70;;;;;;5003134;28;20037;-75
2021/10/03 04:13:16;;;;;;;7.32;2.70;;;13.50;90.40;;;;;;5003231;28;20034;-75
2021/10/03 04:15:42;;;;;;;8.40;3.20;;;13.40;90.60;;;;;;5002629;28;20038;-74
2021/10/03 04:18:08;;;;;;;9.13;3.75;;;13.40;90.60;;;;;;5002712;28;20033;-76
2021/10/03 04:20:33;;;;;;;8.52;3.67;;;13.40;90.70;;;;;;4999111;28;20403;-75
2021/10/03 04:22:59;;;;;;;7.38;3.80;;;13.40;90.50;;;;;;5005298;28;20042;-75
2021/10/03 04:25:24;;;;;;;9.10;4.47;;;13.30;90.60;;;;;;5003460;28;20038;-75
2021/10/03 04:27:50;;;;;;;12.95;5.32;;;13.30;90.70;;;;;;5006928;28;20388;-75
2021/10/03 04:30:16;;;;;;;8.68;3.53;;;13.30;90.70;;;;;;5006192;28;20462;-79
2021/10/03 04:32:42;;;;;;;5.40;3.00;;;13.30;90.80;;;;;;5004110;28;20057;-75
2021/10/03 04:35:08;;;;;;;9.07;3.65;;;13.40;90.80;;;;;;5001657;28;20038;-75
2021/10/03 04:37:34;;;;;;;6.25;2.80;;;13.40;90.60;;;;;;5003931;28;20079;-74
2021/10/03 04:40:00;;;;;;;6.53;2.75;;;13.40;90.70;;;;;;5006195;28;20034;-77
2021/10/03 04:42:26;;;;;;;6.13;2.63;;;13.40;90.70;;;;;;5002854;28;20049;-74
2021/10/03 04:44:51;;;;;;;6.65;2.20;;;13.40;90.80;;;;;;5004438;28;20383;-78
2021/10/03 04:47:17;;;;;;;6.28;2.60;;;13.40;90.70;;;;;;5000390;28;20053;-75
2021/10/03 04:49:43;;;;;;;6.15;2.35;;;13.30;90.70;;;;;;5003864;28;20121;-75
2021/10/03 04:52:08;;;;;;;8.10;2.75;;;13.30;90.70;;;;;;5004082;28;20037;-75
2021/10/03 04:54:34;;;;;;;6.03;2.45;;;13.30;90.70;;;;;;5001813;28;20037;-74
2021/10/03 04:57:00;;;;;;;6.80;2.20;;;13.30;90.70;;;;;;5006834;28;20045;-77
2021/10/03 04:59:25;;;;;;;5.32;2.15;;;13.20;90.60;;;;;;5005778;28;20042;-74
2021/10/03 05:01:51;;;;;;;6.72;2.13;;;13.20;90.70;;;;;;5003640;28;20045;-75
2021/10/03 05:04:17;;;;;;;6.30;2.33;;;13.10;90.60;;;;;;5003842;28;20035;-74
2021/10/03 05:06:43;;;;;;;5.38;2.30;;;13.20;90.90;;;;;;5007817;28;20520;-74
2021/10/03 05:09:08;;;;;;;5.80;1.88;;;13.10;90.80;;;;;;5006207;28;20034;-75
2021/10/03 05:11:34;;;;;;;4.97;1.70;;;13.10;91.00;;;;;;4997697;28;20482;-74
2021/10/03 05:14:05;;;;;;;4.43;1.83;;;13.10;90.90;;;;;;4989227;28;20034;-80
2021/10/03 05:16:31;;;;;;;6.70;2.05;;;13.10;91.00;;;;;;4987201;28;20038;-74
2021/10/03 05:18:58;;;;;;;4.72;1.38;;;13.10;91.10;;;;;;5001790;28;20034;-75
2021/10/03 05:21:23;;;;;;;4.68;1.70;;;13.10;91.10;;;;;;5005923;28;21352;-76
2021/10/03 05:23:49;;;;;;;5.60;1.73;;;13.10;91.10;;;;;;5007735;28;20077;-74
2021/10/03 05:26:15;;;;;;;4.70;1.80;;;13.10;91.20;;;;;;5001682;28;20049;-74
2021/10/03 05:28:41;;;;;;;4.68;1.90;;;13.10;91.10;;;;;;5004061;28;20044;-79
2021/10/03 05:31:06;;;;;;;2.90;1.60;;;13.00;91.20;;;;;;5007980;28;20397;-79
2021/10/03 05:33:32;;;;;;;5.18;1.90;;;13.00;91.40;;;;;;5000561;28;20034;-75
2021/10/03 05:35:59;;;;;;;3.67;1.85;;;13.00;91.40;;;;;;5003745;28;20556;-80
2021/10/03 05:38:25;;;;;;;5.25;1.80;;;13.00;91.30;;;;;;5003516;28;20082;-75
2021/10/03 05:40:51;;;;;;;5.20;2.03;;;12.90;91.20;;;;;;4999359;28;20072;-77
2021/10/03 05:43:17;;;;;;;6.75;2.15;;;13.00;91.20;;;;;;5005111;28;20034;-81
2021/10/03 05:45:42;;;;;;;4.93;2.00;;;12.90;91.20;;;;;;5005920;28;20034;-77
2021/10/03 05:48:08;;;;;;;5.28;1.92;;;12.90;91.20;;;;;;5005315;28;20038;-74
2021/10/03 05:50:34;;;;;;;4.93;1.83;;;12.90;91.30;;;;;;5001109;28;20050;-77
2021/10/03 05:53:00;;;;;;;4.45;1.63;;;12.90;91.30;;;;;;4997921;28;20034;-79
2021/10/03 05:55:26;;;;;;;6.68;2.17;;;12.90;91.40;;;;;;4997759;28;20037;-78
2021/10/03 05:57:51;;;;;;;6.13;2.30;;;12.90;91.30;;;;;;4999483;28;20470;-75
2021/10/03 06:00:18;;;;;;;6.32;2.13;;;12.90;91.30;;;;;;4999220;28;20034;-73
2021/10/03 06:02:43;;;;;;;6.32;2.35;;;12.90;91.10;;;;;;5002028;28;20121;-78
2021/10/03 06:05:09;;;;;;;5.85;1.90;;;12.80;91.20;;;;;;5002759;28;20549;-79
2021/10/03 06:07:35;;;;;;;4.90;2.17;;;12.90;91.30;;;;;;5001714;28;20088;-74
2021/10/03 06:10:01;;;;;;;5.60;2.35;;;12.90;91.30;;;;;;5001720;28;20022;-75
2021/10/03 06:12:27;;;;;;;5.13;2.17;;;12.80;91.30;;;;;;5001623;28;20038;-74
2021/10/03 06:14:53;;;;;;;3.35;1.90;;;12.90;91.10;;;;;;5006580;28;20042;-74
2021/10/03 06:17:19;;;;;;;5.32;2.30;;;12.90;91.20;;;;;;5006324;28;20044;-75
2021/10/03 06:19:44;;;;;;;6.30;2.53;;;12.90;91.20;;;;;;5003382;28;20057;-81
2021/10/03 06:22:10;;;;;;;4.75;2.40;;;12.90;91.00;;;;;;5003327;28;20095;-76
2021/10/03 06:24:36;;;;;;;5.07;2.42;;;12.90;91.10;;;;;;4999748;28;20363;-75
2021/10/03 06:27:01;;;;;;;6.95;2.70;;;12.90;91.20;;;;;;5001467;28;20128;-75
2021/10/03 06:29:27;;;;;;;7.82;2.70;;;12.90;91.20;;;;;;5001625;28;20109;-75
2021/10/03 06:31:54;;;;;;;5.80;2.70;;;12.80;91.10;;;;;;5005125;28;20050;-75
2021/10/03 06:34:19;;;;;;;5.25;2.25;;;12.90;91.10;;;;;;4995655;28;20058;-81
2021/10/03 06:36:45;;;;;;;6.72;2.45;;;12.90;91.10;;;;;;5001470;28;20650;-82
2021/10/03 06:39:11;;;;;;;5.18;2.40;;;12.90;91.10;;;;;;4999470;28;20512;-74
2021/10/03 06:41:36;;;;;;;4.07;1.90;;;13.00;91.10;;;;;;5000016;28;20053;-75
2021/10/03 06:44:02;;;;;;;5.28;2.65;;;13.10;91.10;;;;;;4998712;28;20080;-75
2021/10/03 06:46:28;;;;;;;6.97;2.60;;;13.00;91.10;;;;;;4998522;28;20103;-78
2021/10/03 06:48:54;;;;;;;4.63;2.10;;;13.00;91.00;;;;;;5000755;28;20093;-74
2021/10/03 06:51:19;;;;;;;5.00;2.33;;;13.00;91.00;;;;;;4995869;28;20031;-74
2021/10/03 06:53:45;;;;;;;4.93;2.28;;;13.10;91.00;;;;;;5003900;28;20041;-73
2021/10/03 06:56:11;;;;;;;5.10;2.40;;;13.00;91.00;;;;;;5008592;28;20046;-73
2021/10/03 06:58:36;;;;;;;5.03;2.78;;;13.10;91.00;;;;;;4998232;28;20061;-76
2021/10/03 07:01:04;;;;;;;6.25;2.42;;;13.10;90.80;;;;;;5004429;28;20060;-73
2021/10/03 07:03:30;;;;;;;6.68;2.80;;;13.00;91.00;;;;;;5002854;28;20495;-77
2021/10/03 07:05:56;;;;;;;6.20;2.65;;;13.10;90.90;;;;;;4987661;28;20039;-73
2021/10/03 07:08:21;;;;;;;7.55;3.53;;;13.10;91.00;;;;;;4983186;28;20141;-76
2021/10/03 07:10:47;;;;;;;6.45;3.28;;;13.00;90.80;;;;;;4986469;28;20121;-73
2021/10/03 07:13:13;;;;;;;6.35;3.00;;;13.10;90.90;;;;;;4987808;28;20390;-74
2021/10/03 07:15:39;;;;;;;11.00;3.50;;;13.10;90.80;;;;;;4984554;28;20050;-75
2021/10/03 07:18:05;;;;;;;6.85;3.40;;;13.10;90.80;;;;;;4985962;28;20034;-81
2021/10/03 07:20:30;;;;;;;6.82;3.20;;;13.10;90.70;;;;;;4985672;28;20030;-69
2021/10/03 07:22:56;;;;;;;8.38;4.15;;;13.10;90.80;;;;;;4980520;28;20387;-71
2021/10/03 07:25:23;;;;;;;7.28;3.50;;;13.10;90.80;;;;;;4980613;28;20049;-70
2021/10/03 07:27:49;;;;;;;6.32;3.35;;;13.10;90.50;;;;;;4979012;28;20054;-69
2021/10/03 07:30:16;;;;;;;10.27;3.95;;;13.20;90.60;;;;;;4977892;28;20057;-70
2021/10/03 07:32:42;;;;;;;8.68;3.38;;;13.20;90.60;;;;;;4978440;28;20041;-71
2021/10/03 07:35:08;;;;;;;6.75;3.30;;;13.30;90.70;;;;;;4977837;28;20039;-71
2021/10/03 07:37:34;;;;;;;6.68;3.25;;;13.30;90.50;;;;;;4984014;28;20034;-70
2021/10/03 07:40:02;;;;;;;8.00;4.28;;;13.30;90.50;;;;;;4982825;28;20038;-72
2021/10/03 07:42:31;;;;;;;7.20;3.40;;;13.30;90.40;;;;;;4981468;28;20085;-70
2021/10/03 07:44:57;;;;;;;7.43;4.30;;;13.30;90.40;;;;;;4978341;28;20030;-70
2021/10/03 07:47:23;;;;;;;7.28;3.55;;;13.30;90.40;;;;;;4980639;28;20039;-70
2021/10/03 07:49:49;;;;;;;8.80;3.40;;;13.30;90.30;;;;;;4982685;28;20035;-70
2021/10/03 07:52:14;;;;;;;6.28;3.00;;;13.30;90.20;;;;;;4981138;28;20049;-71
2021/10/03 07:54:40;;;;;;;8.40;2.70;;;13.30;90.00;;;;;;4984139;28;20049;-70
2021/10/03 07:57:06;;;;;;;8.23;3.03;;;13.30;90.20;;;;;;4979111;28;20386;-75
2021/10/03 07:59:32;;;;;;;8.30;3.45;;;13.30;90.20;;;;;;4979143;28;20030;-73
2021/10/03 08:01:58;;;;;;;6.45;3.45;;;13.30;90.30;;;;;;4978031;28;20042;-73
2021/10/03 08:04:24;;;;;;;8.55;3.33;;;13.30;90.20;;;;;;4978021;28;20045;-72
2021/10/03 08:06:50;;;;;;;9.43;4.07;;;13.30;90.20;;;;;;4982757;28;20046;-72
2021/10/03 08:09:16;;;;;;;7.45;3.65;;;13.30;90.30;;;;;;4979028;28;20043;-70
2021/10/03 08:11:41;;;;;;;8.15;4.25;;;13.40;90.40;;;;;;4990958;28;20037;-71
2021/10/03 08:14:07;;;;;;;9.52;4.80;;;13.40;90.40;;;;;;5001503;28;20034;-73
2021/10/03 08:16:33;;;;;;;9.30;5.97;;;13.40;90.20;;;;;;4995653;28;20038;-69
2021/10/03 08:18:59;;;;;;;8.02;4.72;;;13.50;90.50;;;;;;4994770;28;20033;-70
2021/10/03 08:21:26;;;;;;;6.95;4.50;;;13.50;90.40;;;;;;5000916;28;20042;-71
2021/10/03 08:23:52;;;;;;;7.00;3.90;;;13.60;90.30;;;;;;5000240;28;20038;-68
2021/10/03 08:26:18;;;;;;;7.88;4.60;;;13.60;90.40;;;;;;4995104;28;20042;-70
2021/10/03 08:28:44;;;;;;;9.23;5.20;;;13.60;90.20;;;;;;5003790;28;20038;-70
2021/10/03 08:31:10;;;;;;;7.93;5.15;;;13.60;90.10;;;;;;5003888;28;20045;-73
2021/10/03 08:33:37;;;;;;;7.70;4.90;;;13.60;90.10;;;;;;5001022;28;20502;-69
2021/10/03 08:36:03;;;;;;;8.13;5.60;;;13.60;90.20;;;;;;5006012;28;20112;-69
2021/10/03 08:38:29;;;;;;;10.93;7.50;;;13.60;90.00;;;;;;5003341;28;20081;-70
2021/10/03 08:40:55;;;;;;;10.88;6.93;;;13.60;89.90;;;;;;5000225;28;20463;-70
2021/10/03 08:43:21;;;;;;;9.35;6.20;;;13.70;90.20;;;;;;5004542;28;20046;-71
2021/10/03 08:45:47;;;;;;;8.73;5.30;;;13.90;90.10;;;;;;4996569;28;20136;-70
2021/10/03 08:48:14;;;;;;;8.18;5.72;;;14.00;89.80;;;;;;5002637;28;20030;-71
2021/10/03 08:50:41;;;;;;;9.35;5.53;;;14.00;89.60;;;;;;4996463;28;20093;-71
2021/10/03 08:53:07;;;;;;;9.45;7.47;;;14.00;89.30;;;;;;4999124;28;20026;-75
2021/10/03 08:55:33;;;;;;;9.10;6.90;;;14.00;89.50;;;;;;4999293;28;20437;-71
2021/10/03 08:57:59;;;;;;;10.10;7.25;;;13.90;89.40;;;;;;5003397;28;20030;-74
2021/10/03 09:00:26;;;;;;;8.80;6.30;;;13.90;89.50;;;;;;4999225;28;20037;-70
2021/10/03 09:03:08;;;;;;;9.07;5.53;;;13.90;89.60;;;;;;4998770;28;20044;-69
2021/10/03 09:05:39;;;;;;;9.27;6.47;;;13.90;89.60;;;;;;4996980;28;20061;-70
2021/10/03 09:08:15;;;;;;;11.45;8.20;;;13.90;89.70;;;;;;4979403;28;20462;-70
2021/10/03 09:10:55;;;;;;;11.23;8.05;;;13.90;89.80;;;;;;4980565;28;20497;-70
2021/10/03 09:13:23;;;;;;;11.70;7.85;;;13.90;90.00;;;;;;4978756;28;20099;-70
2021/10/03 09:16:12;;;;;;;13.85;9.35;;;13.90;90.20;;;;;;4981243;28;20038;-70
2021/10/03 09:18:47;;;;;;;11.40;8.05;;;13.90;90.00;;;;;;4980146;28;20030;-71
2021/10/03 09:21:28;;;;;;;;;;;13.90;90.00;;;;;;4981208;28;20057;-71
2021/10/03 09:24:01;;;;;;;11.77;8.20;;;13.80;90.00;;;;;;4978009;28;19917;-71
2021/10/03 09:26:27;;;;;;;10.63;7.60;;;13.90;90.20;;;;;;4980475;28;20065;-69
2021/10/03 09:28:53;;;;;;;11.75;7.38;;;14.00;90.10;;;;;;4983375;28;20080;-71
2021/10/03 09:31:21;;;;;;;11.68;6.85;;;14.10;90.00;;;;;;4976667;28;20474;-71
2021/10/03 09:33:51;;;;;;;9.93;6.10;;;14.10;89.60;;;;;;4981588;28;20037;-71
2021/10/03 09:36:24;;;;;;;9.48;5.97;;;14.10;89.30;;;;;;4980276;28;20077;-70
2021/10/03 09:38:51;;;;;;;9.15;6.53;;;14.10;89.00;;;;;;4980409;28;20483;-70
2021/10/03 09:41:20;;;;;;;10.88;6.03;;;14.00;88.80;;;;;;4983101;28;20121;-70
2021/10/03 09:43:49;;;;;;;9.10;6.68;;;14.00;88.90;;;;;;4978193;28;22820;-69
2021/10/03 09:46:35;;;;;;;9.25;6.50;;;14.00;89.00;;;;;;4978739;28;20673;-70
2021/10/03 09:49:04;;;;;;;11.27;6.78;;;14.00;89.00;;;;;;4979373;28;20089;-71
2021/10/03 09:51:30;;;;;;;9.15;6.45;;;13.90;88.90;;;;;;4977008;28;20130;-70
2021/10/03 09:53:55;;;;;;;9.27;6.68;;;13.80;89.10;;;;;;4982000;28;20125;-69
2021/10/03 09:56:21;;;;;;;10.27;6.88;;;13.80;89.20;;;;;;4972957;28;20035;-71
2021/10/03 09:58:47;;;;;;;9.85;6.63;;;13.80;89.30;;;;;;4980586;28;20047;-72
2021/10/03 10:01:14;;;;;;;9.20;6.00;;;13.80;89.40;;;;;;4976577;28;20105;-70
2021/10/03 10:03:40;;;;;;;11.25;6.70;;;13.90;89.50;;;;;;4982088;28;20030;-70
2021/10/03 10:06:07;;;;;;;10.85;6.80;;;13.90;89.70;;;;;;4975985;28;20034;-75
2021/10/03 10:08:38;;;;;;;10.43;6.28;;;13.80;89.50;;;;;;4972681;28;20125;-73
2021/10/03 10:11:10;;;;;;;8.98;6.10;;;13.70;89.40;;;;;;4980978;28;20041;-71
2021/10/03 10:13:38;;;;;;;9.50;6.28;;;13.60;89.30;;;;;;4984576;28;20594;-69
2021/10/03 10:16:25;;;;;;;8.43;5.40;;;13.50;89.30;;;;;;4973760;28;20482;-70
2021/10/03 10:18:51;;;;;;;9.93;5.70;;;13.50;89.70;;;;;;4980929;28;20537;-72
2021/10/03 10:21:23;;;;;;;8.48;4.55;;;13.60;89.60;;;;;;4994487;28;20045;-71
2021/10/03 10:23:49;;;;;;;7.72;4.47;;;13.50;88.90;;;;;;4992274;28;20034;-71
2021/10/03 10:26:38;;;;;;;7.28;4.13;;;13.50;89.10;;;;;;4993779;28;20065;-70
2021/10/03 10:29:42;;;;;;;6.97;4.55;;;13.60;89.20;;;;;;4993407;28;20054;-72
2021/10/03 10:32:09;;;;;;;10.10;5.45;;;13.60;89.30;;;;;;4996609;28;20116;-71
2021/10/03 10:35:07;;;;;;;9.27;6.22;;;13.60;89.10;;;;;;4992375;28;20400;-72
2021/10/03 10:37:54;;;;;;;11.52;7.43;;;13.60;89.50;;;;;;4999627;28;20486;-74
2021/10/03 10:40:23;;;;;;;10.45;6.90;;;13.60;89.60;;;;;;4996744;28;20042;-70
2021/10/03 10:42:53;;;;;;;11.02;6.72;;;13.40;89.70;;;;;;4992083;28;20489;-71
2021/10/03 10:45:27;;;;;;;11.13;6.35;;;13.40;89.80;;;;;;5000947;28;20037;-71
2021/10/03 10:48:08;;;;;;;;;;;13.30;89.60;;;;;;4995630;28;20052;-70
2021/10/03 10:50:36;;;;;;;6.85;3.90;;;13.30;88.60;;;;;;5006495;28;19913;-72
2021/10/03 10:53:17;;;;;;;9.10;4.10;;;13.10;88.20;;;;;;5003788;28;20522;-71
2021/10/03 10:55:59;;;;;;;6.18;3.38;;;13.20;88.80;;;;;;5001384;28;20038;-71
2021/10/03 10:58:25;;;;;;;7.30;2.95;;;13.10;88.70;;;;;;5001439;28;20041;-70
2021/10/03 11:00:58;;;;;;;4.93;2.75;;;13.00;88.50;;;;;;5002256;28;20034;-71
2021/10/03 11:03:42;;;;;;;3.83;2.28;;;13.00;87.90;;;;;;5000097;28;20507;-75
2021/10/03 11:06:09;;;;;;;3.95;2.22;;;13.00;88.20;;;;;;5006962;28;20042;-72
2021/10/03 11:08:56;;;;;;;3.20;1.73;;;13.00;87.70;;;;;;5003515;28;20406;-71
2021/10/03 11:11:33;;;;;;;3.22;1.83;;;13.00;87.50;;;;;;5001003;28;20394;-71
2021/10/03 11:14:01;;;;;;;4.55;2.33;;;13.00;87.00;;;;;;5004911;28;20061;-72
2021/10/03 11:16:36;;;;;;;4.03;2.10;;;13.00;87.20;;;;;;5002501;28;20038;-71
2021/10/03 11:19:11;;;;;;;4.97;2.00;;;13.10;87.10;;;;;;5006634;28;20042;-73
2021/10/03 11:22:09;;;;;;;3.88;2.08;;;13.10;87.10;;;;;;5001255;28;20056;-76
2021/10/03 11:25:01;;;;;;;8.02;3.90;;;13.20;87.40;;;;;;5009637;28;20038;-73
2021/10/03 11:27:30;;;;;;;6.18;3.05;;;13.30;87.10;;;;;;4999449;28;20073;-77
2021/10/03 11:30:00;;;;;;;5.70;3.10;;;13.50;87.30;;;;;;5001088;28;20107;-69
2021/10/03 11:32:37;;;;;;;6.03;2.22;;;13.70;87.40;;;;;;5005715;28;20033;-71
2021/10/03 11:35:03;;;;;;;5.43;2.67;;;13.60;85.50;;;;;;4998167;28;20041;-71
2021/10/03 11:37:52;;;;;;;4.82;2.17;;;13.80;85.80;;;;;;5000241;28;20037;-71
2021/10/03 11:40:23;;;;;;;4.97;1.95;;;13.70;84.80;;;;;;5006315;28;20037;-70
2021/10/03 11:42:57;;;;;;;6.00;2.20;;;13.70;85.10;;;;;;5004272;28;20061;-72
2021/10/03 11:45:28;;;;;;;4.53;2.13;;;13.70;85.80;;;;;;5002507;28;20042;-72
2021/10/03 11:47:57;;;;;;;3.67;2.15;;;13.80;86.10;;;;;;5002585;28;20293;-70
2021/10/03 11:50:42;;;;;;;2.60;1.60;;;13.70;85.40;;;;;;4998780;28;20041;-71
2021/10/03 11:53:15;;;;;;;5.38;2.72;;;13.60;84.60;;;;;;4999293;28;20394;-71
2021/10/03 11:55:42;;;;;;;3.90;2.38;;;13.60;85.60;;;;;;5005746;28;20069;-70
2021/10/03 11:58:10;;;;;;;5.15;2.45;;;13.60;86.20;;;;;;5007544;28;20036;-70
2021/10/03 12:00:57;;;;;;;4.32;2.30;;;13.60;86.30;;;;;;5000545;28;20046;-72
2021/10/03 12:03:26;;;;;;;4.95;2.33;;;13.60;86.60;;;;;;5003794;28;20092;-70
2021/10/03 12:05:52;;;;;;;5.68;2.00;;;13.70;87.10;;;;;;5004857;28;20038;-70
2021/10/03 12:08:20;;;;;;;6.50;3.00;;;13.70;86.60;;;;;;5002912;28;20129;-69
2021/10/03 12:10:51;;;;;;;6.45;2.63;;;13.90;87.20;;;;;;5004259;28;20046;-69
2021/10/03 12:13:18;;;;;;;6.28;2.92;;;14.10;86.90;;;;;;5001956;28;20038;-69
2021/10/03 12:15:47;;;;;;;5.93;2.78;;;14.10;86.10;;;;;;5004000;28;20054;-69
2021/10/03 12:18:14;;;;;;;5.70;3.30;;;14.10;85.60;;;;;;5000277;28;20034;-70
2021/10/03 12:21:00;;;;;;;6.72;3.30;;;14.30;86.00;;;;;;5000967;28;20033;-69
2021/10/03 12:23:41;;;;;;;9.07;4.07;;;14.40;85.80;;;;;;5004662;28;20057;-69
2021/10/03 12:26:21;;;;;;;9.18;6.53;;;14.20;85.60;;;;;;5003337;28;20057;-70
2021/10/03 12:28:58;;;;;;;10.80;7.47;;;14.30;86.70;;;;;;4993667;28;20038;-70
2021/10/03 12:32:08;;;;;;;10.00;7.28;;;14.40;86.70;;;;;;5008913;28;20034;-70
2021/10/03 12:34:35;;;;;;;10.00;6.88;;;14.50;87.00;;;;;;5000446;28;20486;-70
2021/10/03 12:37:12;;;;;;;10.38;7.53;;;14.60;87.00;;;;;;4981530;28;20057;-72
2021/10/03 12:39:42;;;;;;;11.15;7.72;;;14.80;86.90;;;;;;4993565;28;20067;-71
2021/10/03 12:42:14;;;;;;;10.75;7.30;;;14.80;86.20;;;;;;4979535;28;20062;-70
2021/10/03 12:44:42;;;;;;;9.52;5.82;;;14.70;85.40;;;;;;4982713;28;20026;-74
2021/10/03 12:47:10;;;;;;;9.55;5.75;;;14.60;85.00;;;;;;4980280;28;20429;-72
2021/10/03 12:49:36;;;;;;;6.95;4.20;;;14.60;85.20;;;;;;4981436;28;20367;-71
2021/10/03 12:52:04;;;;;;;6.53;3.78;;;14.40;83.60;;;;;;4979740;28;20360;-70